Terminal Aerodrome Forecast
Issued by NWS

Home | Current Version | Previous Version | Graphics & Text | Print | Product List | Glossary On
Versions: 1 2 3 4 5 6 7 8 9 10 11 12 13 14 15 16 17
649
FTUS43 KMPX 211120
TAFRNH
TAF
KRNH 211120Z 2112/2212 12006KT 4SM -RA BR OVC004
     FM211400 20006KT 5SM -DZ BR OVC005
     FM211600 24009KT P6SM VCSH OVC008
     FM212000 28012G19KT P6SM SCT008 OVC012
     FM220100 27009KT P6SM OVC016
     FM221000 25005KT P6SM OVC025=

USA.gov is the U.S. government's official web portal to all federal, state and local government web resources and services.